sensor_id;sensor_type;location;lat;lon;timestamp;P1;durP1;ratioP1;P2;durP2;ratioP2
51332;SDS011;37417;48.118;11.734;2022-12-07T00:01:13;13.80;;;8.95;;
51332;SDS011;37417;48.118;11.734;2022-12-07T00:04:00;12.95;;;8.07;;
51332;SDS011;37417;48.118;11.734;2022-12-07T00:06:50;13.75;;;8.73;;
51332;SDS011;37417;48.118;11.734;2022-12-07T00:09:37;12.25;;;7.18;;
51332;SDS011;37417;48.118;11.734;2022-12-07T00:12:22;10.15;;;6.63;;
51332;SDS011;37417;48.118;11.734;2022-12-07T00:15:08;11.02;;;7.07;;
51332;SDS011;37417;48.118;11.734;2022-12-07T00:17:53;13.18;;;7.78;;
51332;SDS011;37417;48.118;11.734;2022-12-07T00:20:39;16.50;;;8.32;;
51332;SDS011;37417;48.118;11.734;2022-12-07T00:23:25;12.10;;;7.97;;
51332;SDS011;37417;48.118;11.734;2022-12-07T00:26:11;13.90;;;7.70;;
51332;SDS011;37417;48.118;11.734;2022-12-07T00:28:58;12.35;;;8.02;;
51332;SDS011;37417;48.118;11.734;2022-12-07T00:31:44;11.05;;;7.50;;
51332;SDS011;37417;48.118;11.734;2022-12-07T00:34:29;11.50;;;7.57;;
51332;SDS011;37417;48.118;11.734;2022-12-07T00:37:15;11.55;;;7.57;;
51332;SDS011;37417;48.118;11.734;2022-12-07T00:40:00;9.88;;;6.57;;
51332;SDS011;37417;48.118;11.734;2022-12-07T00:42:46;11.55;;;7.32;;
51332;SDS011;37417;48.118;11.734;2022-12-07T00:45:31;8.18;;;5.53;;
51332;SDS011;37417;48.118;11.734;2022-12-07T00:48:17;10.48;;;7.38;;
51332;SDS011;37417;48.118;11.734;2022-12-07T00:51:03;11.65;;;7.90;;
51332;SDS011;37417;48.118;11.734;2022-12-07T00:53:50;9.77;;;6.38;;
51332;SDS011;37417;48.118;11.734;2022-12-07T00:56:35;10.00;;;6.82;;
51332;SDS011;37417;48.118;11.734;2022-12-07T00:59:21;9.10;;;6.38;;
51332;SDS011;37417;48.118;11.734;2022-12-07T01:02:07;11.25;;;6.53;;
51332;SDS011;37417;48.118;11.734;2022-12-07T01:04:52;11.57;;;7.18;;
51332;SDS011;37417;48.118;11.734;2022-12-07T01:07:38;9.07;;;6.38;;
51332;SDS011;37417;48.118;11.734;2022-12-07T01:10:23;10.77;;;6.80;;
51332;SDS011;37417;48.118;11.734;2022-12-07T01:13:09;9.48;;;6.90;;
51332;SDS011;37417;48.118;11.734;2022-12-07T01:15:58;10.05;;;7.18;;
51332;SDS011;37417;48.118;11.734;2022-12-07T01:18:45;8.85;;;6.47;;
51332;SDS011;37417;48.118;11.734;2022-12-07T01:21:32;12.43;;;7.63;;
51332;SDS011;37417;48.118;11.734;2022-12-07T01:24:20;9.27;;;6.35;;
51332;SDS011;37417;48.118;11.734;2022-12-07T01:27:06;9.82;;;6.45;;
51332;SDS011;37417;48.118;11.734;2022-12-07T01:29:51;9.32;;;5.80;;
51332;SDS011;37417;48.118;11.734;2022-12-07T01:32:37;10.63;;;7.10;;
51332;SDS011;37417;48.118;11.734;2022-12-07T01:35:23;8.98;;;6.50;;
51332;SDS011;37417;48.118;11.734;2022-12-07T01:38:08;10.35;;;6.57;;
51332;SDS011;37417;48.118;11.734;2022-12-07T01:40:57;10.18;;;7.00;;
51332;SDS011;37417;48.118;11.734;2022-12-07T01:49:54;9.68;;;7.07;;
51332;SDS011;37417;48.118;11.734;2022-12-07T01:52:39;10.85;;;7.40;;
51332;SDS011;37417;48.118;11.734;2022-12-07T01:55:26;9.95;;;6.95;;
51332;SDS011;37417;48.118;11.734;2022-12-07T01:58:12;10.52;;;6.72;;
51332;SDS011;37417;48.118;11.734;2022-12-07T02:00:59;8.82;;;6.68;;
51332;SDS011;37417;48.118;11.734;2022-12-07T02:03:44;11.18;;;6.72;;
51332;SDS011;37417;48.118;11.734;2022-12-07T02:06:30;9.95;;;7.22;;
51332;SDS011;37417;48.118;11.734;2022-12-07T02:09:16;10.35;;;6.82;;
51332;SDS011;37417;48.118;11.734;2022-12-07T02:12:02;7.85;;;5.80;;
51332;SDS011;37417;48.118;11.734;2022-12-07T02:14:47;13.10;;;8.15;;
51332;SDS011;37417;48.118;11.734;2022-12-07T02:20:39;9.60;;;6.65;;
51332;SDS011;37417;48.118;11.734;2022-12-07T02:29:49;10.48;;;7.20;;
51332;SDS011;37417;48.118;11.734;2022-12-07T02:41:22;12.25;;;7.55;;
51332;SDS011;37417;48.118;11.734;2022-12-07T02:44:11;10.20;;;7.22;;
51332;SDS011;37417;48.118;11.734;2022-12-07T02:47:00;10.73;;;8.00;;
51332;SDS011;37417;48.118;11.734;2022-12-07T02:49:46;10.02;;;7.40;;
51332;SDS011;37417;48.118;11.734;2022-12-07T02:52:32;12.45;;;7.90;;
51332;SDS011;37417;48.118;11.734;2022-12-07T02:55:18;9.93;;;6.38;;
51332;SDS011;37417;48.118;11.734;2022-12-07T02:58:06;14.55;;;7.57;;
51332;SDS011;37417;48.118;11.734;2022-12-07T03:04:10;9.63;;;7.15;;
51332;SDS011;37417;48.118;11.734;2022-12-07T03:07:01;10.25;;;6.90;;
51332;SDS011;37417;48.118;11.734;2022-12-07T03:10:39;7.13;;;6.30;;
51332;SDS011;37417;48.118;11.734;2022-12-07T03:13:39;12.80;;;7.47;;
51332;SDS011;37417;48.118;11.734;2022-12-07T03:16:05;9.77;;;6.63;;
51332;SDS011;37417;48.118;11.734;2022-12-07T03:19:01;10.15;;;6.95;;
51332;SDS011;37417;48.118;11.734;2022-12-07T03:21:49;10.18;;;6.80;;
51332;SDS011;37417;48.118;11.734;2022-12-07T03:24:38;12.25;;;7.38;;
51332;SDS011;37417;48.118;11.734;2022-12-07T03:27:25;11.20;;;7.30;;
51332;SDS011;37417;48.118;11.734;2022-12-07T03:30:13;11.25;;;7.13;;
51332;SDS011;37417;48.118;11.734;2022-12-07T03:33:04;11.00;;;6.47;;
51332;SDS011;37417;48.118;11.734;2022-12-07T03:38:45;10.23;;;7.13;;
51332;SDS011;37417;48.118;11.734;2022-12-07T03:41:32;11.82;;;7.53;;
51332;SDS011;37417;48.118;11.734;2022-12-07T03:44:19;9.82;;;6.75;;
51332;SDS011;37417;48.118;11.734;2022-12-07T03:49:55;9.93;;;6.47;;
51332;SDS011;37417;48.118;11.734;2022-12-07T03:52:52;11.23;;;7.45;;
51332;SDS011;37417;48.118;11.734;2022-12-07T03:55:41;15.25;;;7.75;;
51332;SDS011;37417;48.118;11.734;2022-12-07T03:58:28;10.55;;;7.40;;
51332;SDS011;37417;48.118;11.734;2022-12-07T04:01:15;8.98;;;6.63;;
51332;SDS011;37417;48.118;11.734;2022-12-07T04:04:00;10.30;;;7.28;;
51332;SDS011;37417;48.118;11.734;2022-12-07T04:06:46;12.88;;;7.57;;
51332;SDS011;37417;48.118;11.734;2022-12-07T04:09:31;10.20;;;7.35;;
51332;SDS011;37417;48.118;11.734;2022-12-07T04:12:17;11.25;;;7.53;;
51332;SDS011;37417;48.118;11.734;2022-12-07T04:15:03;12.63;;;7.00;;
51332;SDS011;37417;48.118;11.734;2022-12-07T04:17:49;10.38;;;7.10;;
51332;SDS011;37417;48.118;11.734;2022-12-07T04:20:34;10.38;;;7.70;;
51332;SDS011;37417;48.118;11.734;2022-12-07T04:23:20;11.77;;;7.78;;
51332;SDS011;37417;48.118;11.734;2022-12-07T04:26:05;9.80;;;7.22;;
51332;SDS011;37417;48.118;11.734;2022-12-07T04:28:51;11.38;;;7.93;;
51332;SDS011;37417;48.118;11.734;2022-12-07T04:31:37;11.00;;;7.60;;
51332;SDS011;37417;48.118;11.734;2022-12-07T04:34:22;10.27;;;7.05;;
51332;SDS011;37417;48.118;11.734;2022-12-07T04:37:08;9.30;;;7.00;;
51332;SDS011;37417;48.118;11.734;2022-12-07T04:39:53;13.93;;;6.63;;
51332;SDS011;37417;48.118;11.734;2022-12-07T04:42:39;9.90;;;7.40;;
51332;SDS011;37417;48.118;11.734;2022-12-07T04:45:24;11.07;;;7.45;;
51332;SDS011;37417;48.118;11.734;2022-12-07T04:48:10;10.90;;;7.13;;
51332;SDS011;37417;48.118;11.734;2022-12-07T04:50:55;9.13;;;7.18;;
51332;SDS011;37417;48.118;11.734;2022-12-07T04:53:41;11.70;;;8.18;;
51332;SDS011;37417;48.118;11.734;2022-12-07T04:56:26;11.63;;;8.75;;
51332;SDS011;37417;48.118;11.734;2022-12-07T04:59:13;10.77;;;7.88;;
51332;SDS011;37417;48.118;11.734;2022-12-07T05:01:58;13.48;;;9.18;;
51332;SDS011;37417;48.118;11.734;2022-12-07T05:04:44;13.65;;;8.45;;
51332;SDS011;37417;48.118;11.734;2022-12-07T05:07:30;15.88;;;10.80;;
51332;SDS011;37417;48.118;11.734;2022-12-07T05:10:15;14.73;;;9.90;;
51332;SDS011;37417;48.118;11.734;2022-12-07T05:13:01;12.75;;;9.07;;
51332;SDS011;37417;48.118;11.734;2022-12-07T05:15:47;12.98;;;8.60;;
51332;SDS011;37417;48.118;11.734;2022-12-07T05:18:32;16.45;;;10.57;;
51332;SDS011;37417;48.118;11.734;2022-12-07T05:21:18;15.63;;;8.70;;
51332;SDS011;37417;48.118;11.734;2022-12-07T05:24:04;15.85;;;10.35;;
51332;SDS011;37417;48.118;11.734;2022-12-07T05:26:49;17.85;;;10.52;;
51332;SDS011;37417;48.118;11.734;2022-12-07T05:29:35;14.50;;;10.10;;
51332;SDS011;37417;48.118;11.734;2022-12-07T05:32:20;15.38;;;10.30;;
51332;SDS011;37417;48.118;11.734;2022-12-07T05:35:06;15.77;;;9.95;;
51332;SDS011;37417;48.118;11.734;2022-12-07T05:37:52;15.20;;;9.60;;
51332;SDS011;37417;48.118;11.734;2022-12-07T05:40:37;16.08;;;10.60;;
51332;SDS011;37417;48.118;11.734;2022-12-07T05:43:23;15.98;;;9.82;;
51332;SDS011;37417;48.118;11.734;2022-12-07T05:46:08;18.08;;;10.40;;
51332;SDS011;37417;48.118;11.734;2022-12-07T05:48:54;16.85;;;10.10;;
51332;SDS011;37417;48.118;11.734;2022-12-07T05:51:39;18.10;;;10.80;;
51332;SDS011;37417;48.118;11.734;2022-12-07T05:54:25;17.40;;;11.43;;
51332;SDS011;37417;48.118;11.734;2022-12-07T05:57:11;14.68;;;9.40;;
51332;SDS011;37417;48.118;11.734;2022-12-07T05:59:56;12.52;;;8.85;;
51332;SDS011;37417;48.118;11.734;2022-12-07T06:02:42;13.07;;;9.20;;
51332;SDS011;37417;48.118;11.734;2022-12-07T06:05:27;9.57;;;7.97;;
51332;SDS011;37417;48.118;11.734;2022-12-07T06:08:13;12.18;;;8.70;;
51332;SDS011;37417;48.118;11.734;2022-12-07T06:11:00;12.07;;;9.07;;
51332;SDS011;37417;48.118;11.734;2022-12-07T06:14:04;13.48;;;8.68;;
51332;SDS011;37417;48.118;11.734;2022-12-07T06:16:49;15.30;;;10.13;;
51332;SDS011;37417;48.118;11.734;2022-12-07T06:19:35;15.63;;;8.77;;
51332;SDS011;37417;48.118;11.734;2022-12-07T06:22:20;13.27;;;8.82;;
51332;SDS011;37417;48.118;11.734;2022-12-07T06:25:06;12.95;;;8.93;;
51332;SDS011;37417;48.118;11.734;2022-12-07T06:27:52;11.43;;;9.07;;
51332;SDS011;37417;48.118;11.734;2022-12-07T06:30:38;13.07;;;8.60;;
51332;SDS011;37417;48.118;11.734;2022-12-07T06:33:23;13.02;;;9.15;;
51332;SDS011;37417;48.118;11.734;2022-12-07T06:36:09;11.65;;;8.45;;
51332;SDS011;37417;48.118;11.734;2022-12-07T06:38:55;13.93;;;8.70;;
51332;SDS011;37417;48.118;11.734;2022-12-07T06:41:40;15.77;;;8.35;;
51332;SDS011;37417;48.118;11.734;2022-12-07T06:44:26;12.77;;;9.98;;
51332;SDS011;37417;48.118;11.734;2022-12-07T06:47:11;15.18;;;9.30;;
51332;SDS011;37417;48.118;11.734;2022-12-07T06:49:57;12.73;;;9.43;;
51332;SDS011;37417;48.118;11.734;2022-12-07T06:52:42;16.10;;;9.40;;
51332;SDS011;37417;48.118;11.734;2022-12-07T06:55:28;13.88;;;9.38;;
51332;SDS011;37417;48.118;11.734;2022-12-07T06:58:14;11.07;;;8.65;;
51332;SDS011;37417;48.118;11.734;2022-12-07T07:00:59;11.82;;;9.40;;
51332;SDS011;37417;48.118;11.734;2022-12-07T07:03:45;17.27;;;7.60;;
51332;SDS011;37417;48.118;11.734;2022-12-07T07:06:31;15.63;;;9.85;;
51332;SDS011;37417;48.118;11.734;2022-12-07T07:09:17;13.38;;;9.65;;
51332;SDS011;37417;48.118;11.734;2022-12-07T07:12:02;16.13;;;10.43;;
51332;SDS011;37417;48.118;11.734;2022-12-07T07:14:48;15.07;;;10.05;;
51332;SDS011;37417;48.118;11.734;2022-12-07T07:17:33;16.05;;;9.68;;
51332;SDS011;37417;48.118;11.734;2022-12-07T07:20:19;13.70;;;9.73;;
51332;SDS011;37417;48.118;11.734;2022-12-07T07:23:05;19.35;;;10.18;;
51332;SDS011;37417;48.118;11.734;2022-12-07T07:25:50;17.48;;;10.13;;
51332;SDS011;37417;48.118;11.734;2022-12-07T07:28:36;13.55;;;10.35;;
51332;SDS011;37417;48.118;11.734;2022-12-07T07:31:21;13.43;;;8.57;;
51332;SDS011;37417;48.118;11.734;2022-12-07T07:34:07;15.02;;;10.52;;
51332;SDS011;37417;48.118;11.734;2022-12-07T07:36:53;15.48;;;10.45;;
51332;SDS011;37417;48.118;11.734;2022-12-07T07:39:38;15.40;;;11.43;;
51332;SDS011;37417;48.118;11.734;2022-12-07T07:42:24;15.18;;;11.10;;
51332;SDS011;37417;48.118;11.734;2022-12-07T07:45:09;15.32;;;11.32;;
51332;SDS011;37417;48.118;11.734;2022-12-07T07:47:55;14.07;;;10.00;;
51332;SDS011;37417;48.118;11.734;2022-12-07T07:50:41;15.65;;;10.93;;
51332;SDS011;37417;48.118;11.734;2022-12-07T07:53:26;16.98;;;9.80;;
51332;SDS011;37417;48.118;11.734;2022-12-07T07:56:12;16.42;;;10.55;;
51332;SDS011;37417;48.118;11.734;2022-12-07T07:58:57;16.90;;;9.93;;
51332;SDS011;37417;48.118;11.734;2022-12-07T08:01:43;12.40;;;8.52;;
51332;SDS011;37417;48.118;11.734;2022-12-07T08:04:28;17.80;;;11.27;;
51332;SDS011;37417;48.118;11.734;2022-12-07T08:07:14;9.00;;;6.57;;
51332;SDS011;37417;48.118;11.734;2022-12-07T08:10:00;13.85;;;9.55;;
51332;SDS011;37417;48.118;11.734;2022-12-07T08:12:45;15.10;;;8.98;;
51332;SDS011;37417;48.118;11.734;2022-12-07T08:15:50;12.30;;;9.35;;
51332;SDS011;37417;48.118;11.734;2022-12-07T08:18:36;15.45;;;10.90;;
51332;SDS011;37417;48.118;11.734;2022-12-07T08:21:22;12.10;;;8.43;;
51332;SDS011;37417;48.118;11.734;2022-12-07T08:24:07;14.48;;;10.73;;
51332;SDS011;37417;48.118;11.734;2022-12-07T08:26:53;9.73;;;6.35;;
51332;SDS011;37417;48.118;11.734;2022-12-07T08:29:38;12.95;;;7.68;;
51332;SDS011;37417;48.118;11.734;2022-12-07T08:32:24;11.45;;;8.35;;
51332;SDS011;37417;48.118;11.734;2022-12-07T08:35:09;12.73;;;8.50;;
51332;SDS011;37417;48.118;11.734;2022-12-07T08:37:55;17.02;;;9.35;;
51332;SDS011;37417;48.118;11.734;2022-12-07T08:40:43;11.18;;;7.90;;
51332;SDS011;37417;48.118;11.734;2022-12-07T08:43:28;9.57;;;7.45;;
51332;SDS011;37417;48.118;11.734;2022-12-07T08:49:13;8.38;;;6.70;;
51332;SDS011;37417;48.118;11.734;2022-12-07T08:51:59;11.77;;;8.52;;
51332;SDS011;37417;48.118;11.734;2022-12-07T08:54:45;7.28;;;5.97;;
51332;SDS011;37417;48.118;11.734;2022-12-07T08:57:31;12.55;;;8.15;;
51332;SDS011;37417;48.118;11.734;2022-12-07T09:00:17;15.27;;;7.75;;
51332;SDS011;37417;48.118;11.734;2022-12-07T09:03:03;13.40;;;8.45;;
51332;SDS011;37417;48.118;11.734;2022-12-07T09:05:48;13.35;;;8.70;;
51332;SDS011;37417;48.118;11.734;2022-12-07T09:08:36;9.88;;;7.30;;
51332;SDS011;37417;48.118;11.734;2022-12-07T09:11:23;10.20;;;7.65;;
51332;SDS011;37417;48.118;11.734;2022-12-07T09:14:09;7.93;;;6.15;;
51332;SDS011;37417;48.118;11.734;2022-12-07T09:16:55;7.55;;;5.95;;
51332;SDS011;37417;48.118;11.734;2022-12-07T09:19:40;11.45;;;7.60;;
51332;SDS011;37417;48.118;11.734;2022-12-07T09:22:30;11.82;;;8.63;;
51332;SDS011;37417;48.118;11.734;2022-12-07T09:25:16;12.25;;;7.70;;
51332;SDS011;37417;48.118;11.734;2022-12-07T09:28:02;10.43;;;7.57;;
51332;SDS011;37417;48.118;11.734;2022-12-07T09:30:47;11.15;;;8.13;;
51332;SDS011;37417;48.118;11.734;2022-12-07T09:33:33;11.50;;;7.40;;
51332;SDS011;37417;48.118;11.734;2022-12-07T09:36:19;6.95;;;4.70;;
51332;SDS011;37417;48.118;11.734;2022-12-07T09:39:05;7.85;;;7.03;;
51332;SDS011;37417;48.118;11.734;2022-12-07T09:41:51;12.05;;;8.10;;
51332;SDS011;37417;48.118;11.734;2022-12-07T09:44:39;10.05;;;6.47;;
51332;SDS011;37417;48.118;11.734;2022-12-07T09:47:25;15.20;;;7.75;;
51332;SDS011;37417;48.118;11.734;2022-12-07T09:50:21;12.55;;;7.78;;
51332;SDS011;37417;48.118;11.734;2022-12-07T09:53:09;9.90;;;6.97;;
51332;SDS011;37417;48.118;11.734;2022-12-07T09:55:55;6.82;;;5.22;;
51332;SDS011;37417;48.118;11.734;2022-12-07T09:58:41;10.05;;;7.45;;
51332;SDS011;37417;48.118;11.734;2022-12-07T10:01:28;11.27;;;6.22;;
51332;SDS011;37417;48.118;11.734;2022-12-07T10:04:16;8.27;;;6.60;;
51332;SDS011;37417;48.118;11.734;2022-12-07T10:07:02;9.13;;;6.93;;
51332;SDS011;37417;48.118;11.734;2022-12-07T10:09:47;11.30;;;6.80;;
51332;SDS011;37417;48.118;11.734;2022-12-07T10:12:50;10.02;;;7.15;;
51332;SDS011;37417;48.118;11.734;2022-12-07T10:15:59;5.30;;;4.50;;
51332;SDS011;37417;48.118;11.734;2022-12-07T10:18:43;7.80;;;4.75;;
51332;SDS011;37417;48.118;11.734;2022-12-07T10:21:29;8.70;;;6.13;;
51332;SDS011;37417;48.118;11.734;2022-12-07T10:24:15;6.05;;;5.07;;
51332;SDS011;37417;48.118;11.734;2022-12-07T10:27:00;9.48;;;6.70;;
51332;SDS011;37417;48.118;11.734;2022-12-07T10:29:47;7.95;;;6.43;;
51332;SDS011;37417;48.118;11.734;2022-12-07T10:32:34;7.82;;;5.70;;
51332;SDS011;37417;48.118;11.734;2022-12-07T10:38:07;6.90;;;5.20;;
51332;SDS011;37417;48.118;11.734;2022-12-07T10:41:04;4.57;;;3.75;;
51332;SDS011;37417;48.118;11.734;2022-12-07T10:43:52;7.75;;;5.47;;
51332;SDS011;37417;48.118;11.734;2022-12-07T10:52:33;9.40;;;5.85;;
51332;SDS011;37417;48.118;11.734;2022-12-07T10:55:24;7.53;;;5.22;;
51332;SDS011;37417;48.118;11.734;2022-12-07T10:58:29;5.85;;;4.72;;
51332;SDS011;37417;48.118;11.734;2022-12-07T11:01:24;7.32;;;5.03;;
51332;SDS011;37417;48.118;11.734;2022-12-07T11:10:26;6.22;;;3.25;;
51332;SDS011;37417;48.118;11.734;2022-12-07T11:13:35;7.60;;;5.00;;
51332;SDS011;37417;48.118;11.734;2022-12-07T11:19:34;8.02;;;5.03;;
51332;SDS011;37417;48.118;11.734;2022-12-07T11:22:45;7.55;;;5.45;;
51332;SDS011;37417;48.118;11.734;2022-12-07T11:25:34;7.53;;;5.05;;
51332;SDS011;37417;48.118;11.734;2022-12-07T11:34:06;4.60;;;3.97;;
51332;SDS011;37417;48.118;11.734;2022-12-07T11:36:53;7.03;;;3.05;;
51332;SDS011;37417;48.118;11.734;2022-12-07T11:39:44;4.70;;;4.05;;
51332;SDS011;37417;48.118;11.734;2022-12-07T11:42:42;4.93;;;4.43;;
51332;SDS011;37417;48.118;11.734;2022-12-07T11:45:30;5.22;;;4.05;;
51332;SDS011;37417;48.118;11.734;2022-12-07T11:48:30;6.10;;;4.10;;
51332;SDS011;37417;48.118;11.734;2022-12-07T11:51:18;2.45;;;2.22;;
51332;SDS011;37417;48.118;11.734;2022-12-07T11:54:14;7.40;;;4.72;;
51332;SDS011;37417;48.118;11.734;2022-12-07T11:57:03;7.00;;;4.18;;
51332;SDS011;37417;48.118;11.734;2022-12-07T11:59:50;5.03;;;4.15;;
51332;SDS011;37417;48.118;11.734;2022-12-07T12:02:38;5.55;;;4.40;;
51332;SDS011;37417;48.118;11.734;2022-12-07T12:05:28;6.47;;;5.65;;
51332;SDS011;37417;48.118;11.734;2022-12-07T12:08:18;7.85;;;5.25;;
51332;SDS011;37417;48.118;11.734;2022-12-07T12:11:19;6.82;;;5.45;;
51332;SDS011;37417;48.118;11.734;2022-12-07T12:22:53;4.47;;;3.90;;
51332;SDS011;37417;48.118;11.734;2022-12-07T12:25:42;7.75;;;5.10;;
51332;SDS011;37417;48.118;11.734;2022-12-07T12:31:34;7.68;;;5.60;;
51332;SDS011;37417;48.118;11.734;2022-12-07T12:34:32;5.50;;;4.05;;
51332;SDS011;37417;48.118;11.734;2022-12-07T12:43:39;7.45;;;4.70;;
51332;SDS011;37417;48.118;11.734;2022-12-07T12:57:42;9.70;;;6.28;;
51332;SDS011;37417;48.118;11.734;2022-12-07T13:00:27;7.53;;;5.53;;
51332;SDS011;37417;48.118;11.734;2022-12-07T13:03:25;6.05;;;4.65;;
51332;SDS011;37417;48.118;11.734;2022-12-07T13:09:03;7.93;;;5.57;;
51332;SDS011;37417;48.118;11.734;2022-12-07T13:11:49;6.70;;;4.95;;
51332;SDS011;37417;48.118;11.734;2022-12-07T13:14:41;6.70;;;4.43;;
51332;SDS011;37417;48.118;11.734;2022-12-07T13:20:39;10.30;;;6.15;;
51332;SDS011;37417;48.118;11.734;2022-12-07T13:26:35;11.05;;;6.68;;
51332;SDS011;37417;48.118;11.734;2022-12-07T13:29:21;6.82;;;4.85;;
51332;SDS011;37417;48.118;11.734;2022-12-07T13:32:17;7.95;;;5.72;;
51332;SDS011;37417;48.118;11.734;2022-12-07T13:41:17;6.28;;;5.15;;
51332;SDS011;37417;48.118;11.734;2022-12-07T13:44:10;7.10;;;5.18;;
51332;SDS011;37417;48.118;11.734;2022-12-07T13:47:05;7.95;;;6.00;;
51332;SDS011;37417;48.118;11.734;2022-12-07T13:49:53;10.25;;;5.80;;
51332;SDS011;37417;48.118;11.734;2022-12-07T13:52:43;9.95;;;5.20;;
51332;SDS011;37417;48.118;11.734;2022-12-07T13:55:28;9.07;;;7.00;;
51332;SDS011;37417;48.118;11.734;2022-12-07T13:58:14;8.98;;;6.20;;
51332;SDS011;37417;48.118;11.734;2022-12-07T14:01:00;9.57;;;6.35;;
51332;SDS011;37417;48.118;11.734;2022-12-07T14:03:46;9.55;;;6.63;;
51332;SDS011;37417;48.118;11.734;2022-12-07T14:06:31;10.50;;;6.68;;
51332;SDS011;37417;48.118;11.734;2022-12-07T14:09:18;7.93;;;6.30;;
51332;SDS011;37417;48.118;11.734;2022-12-07T14:12:05;8.32;;;5.85;;
51332;SDS011;37417;48.118;11.734;2022-12-07T14:14:51;9.68;;;6.40;;
51332;SDS011;37417;48.118;11.734;2022-12-07T14:17:38;9.63;;;6.68;;
51332;SDS011;37417;48.118;11.734;2022-12-07T14:20:38;11.45;;;6.30;;
51332;SDS011;37417;48.118;11.734;2022-12-07T14:23:25;8.02;;;5.72;;
51332;SDS011;37417;48.118;11.734;2022-12-07T14:26:12;8.80;;;6.88;;
51332;SDS011;37417;48.118;11.734;2022-12-07T14:32:46;9.40;;;5.95;;
51332;SDS011;37417;48.118;11.734;2022-12-07T14:35:16;8.60;;;5.90;;
51332;SDS011;37417;48.118;11.734;2022-12-07T14:38:02;8.82;;;6.05;;
51332;SDS011;37417;48.118;11.734;2022-12-07T14:40:48;10.07;;;6.80;;
51332;SDS011;37417;48.118;11.734;2022-12-07T14:43:34;9.55;;;5.55;;
51332;SDS011;37417;48.118;11.734;2022-12-07T14:46:19;7.65;;;5.40;;
51332;SDS011;37417;48.118;11.734;2022-12-07T14:49:05;9.57;;;5.97;;
51332;SDS011;37417;48.118;11.734;2022-12-07T14:51:50;8.48;;;6.22;;
51332;SDS011;37417;48.118;11.734;2022-12-07T14:54:36;9.70;;;5.72;;
51332;SDS011;37417;48.118;11.734;2022-12-07T14:57:22;7.95;;;5.65;;
51332;SDS011;37417;48.118;11.734;2022-12-07T15:00:09;9.40;;;6.00;;
51332;SDS011;37417;48.118;11.734;2022-12-07T15:02:55;9.02;;;5.80;;
51332;SDS011;37417;48.118;11.734;2022-12-07T15:05:41;9.68;;;6.75;;
51332;SDS011;37417;48.118;11.734;2022-12-07T15:08:27;10.80;;;6.90;;
51332;SDS011;37417;48.118;11.734;2022-12-07T15:11:16;9.98;;;6.00;;
51332;SDS011;37417;48.118;11.734;2022-12-07T15:14:02;10.65;;;6.68;;
51332;SDS011;37417;48.118;11.734;2022-12-07T15:16:53;13.17;;;6.07;;
51332;SDS011;37417;48.118;11.734;2022-12-07T15:19:39;8.32;;;5.95;;
51332;SDS011;37417;48.118;11.734;2022-12-07T15:22:24;10.25;;;6.65;;
51332;SDS011;37417;48.118;11.734;2022-12-07T15:25:13;7.47;;;5.93;;
51332;SDS011;37417;48.118;11.734;2022-12-07T15:27:58;10.90;;;6.72;;
51332;SDS011;37417;48.118;11.734;2022-12-07T15:30:44;11.30;;;6.93;;
51332;SDS011;37417;48.118;11.734;2022-12-07T15:33:30;14.18;;;7.53;;
51332;SDS011;37417;48.118;11.734;2022-12-07T15:36:19;15.60;;;7.57;;
51332;SDS011;37417;48.118;11.734;2022-12-07T15:39:06;9.30;;;6.20;;
51332;SDS011;37417;48.118;11.734;2022-12-07T15:41:52;19.73;;;7.60;;
51332;SDS011;37417;48.118;11.734;2022-12-07T15:44:37;14.23;;;8.00;;
51332;SDS011;37417;48.118;11.734;2022-12-07T15:47:43;14.55;;;7.22;;
51332;SDS011;37417;48.118;11.734;2022-12-07T15:50:29;17.80;;;8.80;;
51332;SDS011;37417;48.118;11.734;2022-12-07T15:53:15;13.25;;;7.97;;
51332;SDS011;37417;48.118;11.734;2022-12-07T15:56:00;15.40;;;8.77;;
51332;SDS011;37417;48.118;11.734;2022-12-07T15:58:46;16.40;;;8.30;;
51332;SDS011;37417;48.118;11.734;2022-12-07T16:01:32;15.43;;;8.40;;
51332;SDS011;37417;48.118;11.734;2022-12-07T16:04:17;16.25;;;9.75;;
51332;SDS011;37417;48.118;11.734;2022-12-07T16:07:03;22.30;;;10.70;;
51332;SDS011;37417;48.118;11.734;2022-12-07T16:09:49;19.52;;;9.73;;
51332;SDS011;37417;48.118;11.734;2022-12-07T16:12:35;17.38;;;8.73;;
51332;SDS011;37417;48.118;11.734;2022-12-07T16:15:20;16.73;;;9.88;;
51332;SDS011;37417;48.118;11.734;2022-12-07T16:18:06;24.00;;;10.43;;
51332;SDS011;37417;48.118;11.734;2022-12-07T16:20:51;18.05;;;9.07;;
51332;SDS011;37417;48.118;11.734;2022-12-07T16:23:37;17.52;;;10.98;;
51332;SDS011;37417;48.118;11.734;2022-12-07T16:26:23;19.60;;;9.25;;
51332;SDS011;37417;48.118;11.734;2022-12-07T16:29:10;18.45;;;10.57;;
51332;SDS011;37417;48.118;11.734;2022-12-07T16:31:57;17.30;;;8.65;;
51332;SDS011;37417;48.118;11.734;2022-12-07T16:34:42;13.40;;;8.32;;
51332;SDS011;37417;48.118;11.734;2022-12-07T16:37:28;14.77;;;7.95;;
51332;SDS011;37417;48.118;11.734;2022-12-07T16:40:14;12.30;;;7.40;;
51332;SDS011;37417;48.118;11.734;2022-12-07T16:42:59;18.42;;;9.77;;
51332;SDS011;37417;48.118;11.734;2022-12-07T16:45:48;15.02;;;9.32;;
51332;SDS011;37417;48.118;11.734;2022-12-07T16:48:37;16.48;;;9.73;;
51332;SDS011;37417;48.118;11.734;2022-12-07T16:51:23;16.02;;;8.23;;
51332;SDS011;37417;48.118;11.734;2022-12-07T16:54:09;17.25;;;9.05;;
51332;SDS011;37417;48.118;11.734;2022-12-07T16:56:55;22.15;;;10.82;;
51332;SDS011;37417;48.118;11.734;2022-12-07T16:59:40;16.95;;;9.63;;
51332;SDS011;37417;48.118;11.734;2022-12-07T17:02:26;23.55;;;10.20;;
51332;SDS011;37417;48.118;11.734;2022-12-07T17:05:11;15.50;;;9.98;;
51332;SDS011;37417;48.118;11.734;2022-12-07T17:07:57;19.75;;;10.52;;
51332;SDS011;37417;48.118;11.734;2022-12-07T17:10:43;17.05;;;9.68;;
51332;SDS011;37417;48.118;11.734;2022-12-07T17:13:29;19.67;;;10.05;;
51332;SDS011;37417;48.118;11.734;2022-12-07T17:16:34;17.70;;;10.32;;
51332;SDS011;37417;48.118;11.734;2022-12-07T17:19:20;18.13;;;10.57;;
51332;SDS011;37417;48.118;11.734;2022-12-07T17:22:05;17.25;;;10.88;;
51332;SDS011;37417;48.118;11.734;2022-12-07T17:24:51;16.45;;;10.10;;
51332;SDS011;37417;48.118;11.734;2022-12-07T17:27:36;14.52;;;9.43;;
51332;SDS011;37417;48.118;11.734;2022-12-07T17:30:22;17.05;;;10.20;;
51332;SDS011;37417;48.118;11.734;2022-12-07T17:33:08;17.15;;;9.60;;
51332;SDS011;37417;48.118;11.734;2022-12-07T17:35:53;19.85;;;10.85;;
51332;SDS011;37417;48.118;11.734;2022-12-07T17:38:39;15.73;;;9.27;;
51332;SDS011;37417;48.118;11.734;2022-12-07T17:41:28;21.20;;;11.13;;
51332;SDS011;37417;48.118;11.734;2022-12-07T17:44:32;23.20;;;12.70;;
51332;SDS011;37417;48.118;11.734;2022-12-07T17:47:18;20.65;;;12.00;;
51332;SDS011;37417;48.118;11.734;2022-12-07T17:50:06;25.00;;;13.68;;
51332;SDS011;37417;48.118;11.734;2022-12-07T17:52:52;21.85;;;12.27;;
51332;SDS011;37417;48.118;11.734;2022-12-07T17:55:56;22.10;;;11.68;;
51332;SDS011;37417;48.118;11.734;2022-12-07T17:58:41;17.83;;;11.15;;
51332;SDS011;37417;48.118;11.734;2022-12-07T18:01:27;20.95;;;11.40;;
51332;SDS011;37417;48.118;11.734;2022-12-07T18:04:12;21.33;;;13.38;;
51332;SDS011;37417;48.118;11.734;2022-12-07T18:06:58;20.00;;;11.60;;
51332;SDS011;37417;48.118;11.734;2022-12-07T18:09:43;18.75;;;11.93;;